createdAt,value
2023-05-12T00:00:15.257Z,28.24
2023-05-12T00:02:42.780Z,28.27
2023-05-12T00:05:09.833Z,28.38
2023-05-12T00:07:36.796Z,28.42
2023-05-12T00:10:04.717Z,28.48
2023-05-12T00:12:31.938Z,28.54
2023-05-12T00:14:58.926Z,28.62
2023-05-12T00:17:28.090Z,28.76
2023-05-12T00:19:55.183Z,28.88
2023-05-12T00:22:22.241Z,28.96
2023-05-12T00:24:49.191Z,28.98
2023-05-12T00:27:16.144Z,29.03
2023-05-12T00:29:43.296Z,29.10
2023-05-12T00:32:10.309Z,29.33
2023-05-12T00:34:37.401Z,29.29
2023-05-12T00:37:04.455Z,29.34
2023-05-12T00:39:31.280Z,29.51
2023-05-12T00:41:58.605Z,29.60
2023-05-12T00:44:25.640Z,29.70
2023-05-12T00:46:52.793Z,29.73
2023-05-12T00:49:19.722Z,29.78
2023-05-12T00:51:46.677Z,29.88
2023-05-12T00:54:13.645Z,29.93
2023-05-12T00:56:40.689Z,30.04
2023-05-12T00:59:09.151Z,30.11
2023-05-12T01:01:39.598Z,30.23
2023-05-12T01:04:07.061Z,30.24
2023-05-12T01:07:32.242Z,30.28
2023-05-12T01:09:59.709Z,30.32
2023-05-12T01:12:28.411Z,30.38
2023-05-12T01:14:56.276Z,30.52
2023-05-12T01:17:32.882Z,30.46
2023-05-12T01:20:01.671Z,30.53
2023-05-12T01:22:32.025Z,30.62
2023-05-12T01:25:04.560Z,30.67
2023-05-12T01:27:32.106Z,30.74
2023-05-12T01:30:00.850Z,30.79
2023-05-12T01:32:29.789Z,30.90
2023-05-12T01:34:56.832Z,30.93
2023-05-12T01:37:42.944Z,31.03
2023-05-12T01:40:10.677Z,31.15
2023-05-12T01:42:40.102Z,31.18
2023-05-12T01:45:08.380Z,31.32
2023-05-12T01:47:36.182Z,31.36
2023-05-12T01:50:07.400Z,31.40
2023-05-12T01:52:34.461Z,31.44
2023-05-12T01:55:01.982Z,31.50
2023-05-12T01:57:33.990Z,31.70
2023-05-12T02:00:01.788Z,31.84
2023-05-12T02:02:31.723Z,31.99
2023-05-12T02:05:00.372Z,32.04
2023-05-12T02:07:27.416Z,32.23
2023-05-12T02:09:54.820Z,32.37
2023-05-12T02:12:23.995Z,32.47
2023-05-12T02:14:51.550Z,32.67
2023-05-12T02:17:18.820Z,32.75
2023-05-12T02:19:46.600Z,32.86
2023-05-12T02:22:13.784Z,32.93
2023-05-12T02:24:40.812Z,32.97
2023-05-12T02:27:07.799Z,33.06
2023-05-12T02:29:35.024Z,33.24
2023-05-12T02:32:02.211Z,33.31
2023-05-12T02:34:29.741Z,33.42
2023-05-12T02:36:56.975Z,33.61
2023-05-12T02:39:24.333Z,33.75
2023-05-12T02:41:51.387Z,33.82
2023-05-12T02:44:20.808Z,33.92
2023-05-12T02:46:49.181Z,33.99
2023-05-12T02:49:16.443Z,34.06
2023-05-12T02:51:43.502Z,34.12
2023-05-12T02:54:10.858Z,34.20
2023-05-12T02:56:37.915Z,34.32
2023-05-12T02:59:04.963Z,34.32
2023-05-12T03:01:32.056Z,34.39
2023-05-12T03:03:59.200Z,34.37
2023-05-12T03:06:26.951Z,34.46
2023-05-12T03:08:56.064Z,34.45
2023-05-12T03:11:23.035Z,34.56
2023-05-12T03:13:50.056Z,34.50
2023-05-12T03:16:19.762Z,34.68
2023-05-12T03:18:47.864Z,34.76
2023-05-12T03:21:15.109Z,34.92
2023-05-12T03:23:42.065Z,35.11
2023-05-12T03:26:09.102Z,35.30
2023-05-12T03:28:36.225Z,35.49
2023-05-12T03:31:03.352Z,35.58
2023-05-12T03:33:30.669Z,35.73
2023-05-12T03:35:58.143Z,35.88
2023-05-12T03:38:25.081Z,36.06
2023-05-12T03:40:54.907Z,36.08
2023-05-12T03:43:22.260Z,36.28
2023-05-12T03:45:49.519Z,36.69
2023-05-12T03:48:16.542Z,36.88
2023-05-12T03:50:43.628Z,37.16
2023-05-12T03:53:10.783Z,37.50
2023-05-12T03:55:37.840Z,37.88
2023-05-12T03:58:04.837Z,38.17
2023-05-12T04:00:33.085Z,38.35
2023-05-12T04:03:00.288Z,38.62
2023-05-12T04:05:27.302Z,38.98
2023-05-12T04:07:54.658Z,39.00
2023-05-12T04:10:22.436Z,38.97
2023-05-12T04:12:50.385Z,39.01
2023-05-12T04:15:17.864Z,38.91
2023-05-12T04:17:44.903Z,39.02
2023-05-12T04:20:13.139Z,39.20
2023-05-12T04:22:40.234Z,39.37
2023-05-12T04:25:07.735Z,39.71
2023-05-12T04:27:34.890Z,39.89
2023-05-12T04:30:02.211Z,40.07
2023-05-12T04:32:32.785Z,40.55
2023-05-12T04:35:00.528Z,40.81
2023-05-12T04:37:28.086Z,40.97
2023-05-12T04:39:55.544Z,41.01
2023-05-12T04:42:22.663Z,40.96
2023-05-12T04:44:50.092Z,41.03
2023-05-12T04:47:17.224Z,41.07
2023-05-12T04:49:44.199Z,41.10
2023-05-12T04:52:13.467Z,41.14
2023-05-12T04:54:40.421Z,41.13
2023-05-12T04:57:07.481Z,41.14
2023-05-12T04:59:36.180Z,41.07
2023-05-12T05:02:03.148Z,41.14
2023-05-12T05:04:30.288Z,41.20
2023-05-12T05:06:57.611Z,41.27
2023-05-12T05:09:25.162Z,41.32
2023-05-12T05:11:52.466Z,41.45
2023-05-12T05:14:19.511Z,41.63
2023-05-12T05:16:46.672Z,41.65
2023-05-12T05:19:20.950Z,41.70
2023-05-12T05:21:57.568Z,41.94
2023-05-12T05:24:24.634Z,42.05
2023-05-12T05:26:51.663Z,42.07
2023-05-12T05:29:19.138Z,42.07
2023-05-12T05:31:46.330Z,41.87
2023-05-12T05:34:14.398Z,41.82
2023-05-12T05:36:41.621Z,41.80
2023-05-12T05:39:10.562Z,41.80
2023-05-12T05:41:37.700Z,41.77
2023-05-12T05:44:05.033Z,41.97
2023-05-12T05:46:32.144Z,41.97
2023-05-12T05:48:59.162Z,41.86
2023-05-12T05:51:26.150Z,41.64
2023-05-12T05:53:53.152Z,41.69
2023-05-12T05:56:20.198Z,41.73
2023-05-12T05:58:48.067Z,41.58
2023-05-12T06:01:15.600Z,41.35
2023-05-12T06:03:42.933Z,41.24
2023-05-12T06:06:09.969Z,41.02
2023-05-12T06:08:36.994Z,40.81
2023-05-12T06:11:04.584Z,40.54
2023-05-12T06:13:36.529Z,40.33
2023-05-12T06:16:03.583Z,39.93
2023-05-12T06:18:30.634Z,39.96
2023-05-12T06:20:57.748Z,39.92
2023-05-12T06:23:24.739Z,39.85
2023-05-12T06:25:51.732Z,39.76
2023-05-12T06:28:18.654Z,39.56
2023-05-12T06:30:46.206Z,39.46
2023-05-12T06:33:13.192Z,39.48
2023-05-12T06:35:40.325Z,39.52
2023-05-12T06:38:07.476Z,39.52
2023-05-12T06:40:34.454Z,39.28
2023-05-12T06:43:01.390Z,39.09
2023-05-12T06:45:28.306Z,38.67
2023-05-12T06:47:55.543Z,38.45
2023-05-12T06:50:22.652Z,38.33
2023-05-12T06:52:52.575Z,38.06
2023-05-12T06:55:21.166Z,37.90
2023-05-12T06:57:48.518Z,37.88
2023-05-12T07:00:16.283Z,37.75
2023-05-12T07:02:43.381Z,36.95
2023-05-12T07:05:10.485Z,36.38
2023-05-12T07:07:37.552Z,35.78
2023-05-12T07:10:04.989Z,34.34
2023-05-12T07:12:32.770Z,31.27
2023-05-12T07:14:59.834Z,27.55
2023-05-12T07:17:26.940Z,24.80
2023-05-12T07:19:54.032Z,22.88
2023-05-12T07:22:21.099Z,21.04
2023-05-12T07:24:48.266Z,19.11
2023-05-12T07:27:15.404Z,17.37
2023-05-12T07:29:42.376Z,15.96
2023-05-12T07:32:09.416Z,14.89
2023-05-12T07:34:36.371Z,14.24
2023-05-12T07:37:04.177Z,13.76
2023-05-12T07:39:32.578Z,13.21
2023-05-12T07:41:59.772Z,12.51
2023-05-12T07:44:27.756Z,12.21
2023-05-12T07:46:54.915Z,11.86
2023-05-12T07:49:23.590Z,11.32
2023-05-12T07:51:50.649Z,10.97
2023-05-12T07:54:17.722Z,10.63
2023-05-12T07:56:44.764Z,10.84
2023-05-12T07:59:13.666Z,11.73
2023-05-12T08:01:41.482Z,12.96
2023-05-12T08:04:08.717Z,14.17
2023-05-12T08:06:35.931Z,15.42
2023-05-12T08:09:02.899Z,16.52
2023-05-12T08:11:29.945Z,17.44
2023-05-12T08:13:56.848Z,18.15
2023-05-12T08:16:23.841Z,18.99
2023-05-12T08:18:50.842Z,19.69
2023-05-12T08:21:17.849Z,20.33
2023-05-12T08:23:44.997Z,21.00
2023-05-12T08:26:11.971Z,21.39
2023-05-12T08:28:39.015Z,21.75
2023-05-12T08:31:05.956Z,22.13
2023-05-12T08:33:35.830Z,22.92
2023-05-12T08:36:02.826Z,23.80
2023-05-12T08:38:29.791Z,24.28
2023-05-12T08:41:08.807Z,24.72
2023-05-12T08:43:45.846Z,25.36
2023-05-12T08:46:13.334Z,25.59
2023-05-12T08:48:40.651Z,25.73
2023-05-12T08:51:13.263Z,25.88
2023-05-12T08:53:41.265Z,25.96
2023-05-12T08:58:42.022Z,26.58
2023-05-12T09:01:10.463Z,26.56
2023-05-12T09:03:37.806Z,26.61
2023-05-12T09:06:04.942Z,26.58
2023-05-12T09:08:35.304Z,26.57
2023-05-12T09:11:02.822Z,26.62
2023-05-12T09:13:40.394Z,26.83
2023-05-12T09:16:08.329Z,27.13
2023-05-12T09:18:52.336Z,27.30
2023-05-12T09:21:19.483Z,27.45
2023-05-12T09:23:55.782Z,27.54
2023-05-12T09:26:25.326Z,27.60
2023-05-12T09:29:06.794Z,27.66
2023-05-12T09:31:34.171Z,27.78
2023-05-12T09:34:02.622Z,27.71
2023-05-12T09:36:29.525Z,27.78
2023-05-12T09:39:08.085Z,27.72
2023-05-12T09:41:39.110Z,27.66
2023-05-12T09:44:06.781Z,27.55
2023-05-12T09:46:33.767Z,27.41
2023-05-12T09:49:01.236Z,27.34
2023-05-12T09:51:28.348Z,27.43
2023-05-12T09:53:55.414Z,27.00
2023-05-12T09:56:23.165Z,26.35
2023-05-12T09:58:50.408Z,26.27
2023-05-12T10:01:23.125Z,25.93
2023-05-12T10:03:52.635Z,26.15
2023-05-12T10:06:28.394Z,26.47
2023-05-12T10:09:06.665Z,26.77
2023-05-12T10:11:33.668Z,26.63
2023-05-12T10:14:00.844Z,26.52
2023-05-12T10:16:31.032Z,26.52
2023-05-12T10:18:58.008Z,26.40
2023-05-12T10:21:26.051Z,26.37
2023-05-12T10:23:53.489Z,26.05
2023-05-12T10:26:20.433Z,25.66
2023-05-12T10:28:51.074Z,25.52
2023-05-12T10:31:18.068Z,25.30
2023-05-12T10:33:56.406Z,25.26
2023-05-12T10:36:23.300Z,25.19
2023-05-12T10:38:50.340Z,25.22
2023-05-12T10:41:17.375Z,25.24
2023-05-12T10:43:48.361Z,25.09
2023-05-12T10:46:19.956Z,25.06
2023-05-12T10:48:55.546Z,24.77
2023-05-12T10:51:43.738Z,24.81
2023-05-12T10:54:11.999Z,24.88
2023-05-12T10:56:39.782Z,24.90
2023-05-12T10:59:07.521Z,25.12
2023-05-12T11:01:34.939Z,25.35
2023-05-12T11:04:14.846Z,25.43
2023-05-12T11:06:43.738Z,25.33
2023-05-12T11:09:13.331Z,25.20
2023-05-12T11:11:41.009Z,25.01
2023-05-12T11:14:08.659Z,24.93
2023-05-12T11:16:42.421Z,25.00
2023-05-12T11:19:09.445Z,24.83
2023-05-12T11:21:37.315Z,24.78
2023-05-12T11:24:04.949Z,24.56
2023-05-12T11:26:31.960Z,24.47
2023-05-12T11:28:59.064Z,24.39
2023-05-12T11:31:26.567Z,24.30
2023-05-12T11:34:13.149Z,24.30
2023-05-12T11:36:42.420Z,24.23
2023-05-12T11:39:19.313Z,24.38
2023-05-12T11:41:46.661Z,24.43
2023-05-12T11:44:18.014Z,24.46
2023-05-12T11:47:11.684Z,24.40
2023-05-12T11:49:53.357Z,24.35
2023-05-12T11:52:21.657Z,24.33
2023-05-12T11:54:49.966Z,24.07
2023-05-12T11:57:32.022Z,23.82
2023-05-12T12:00:09.857Z,23.73
2023-05-12T12:02:37.683Z,23.80
2023-05-12T12:05:07.772Z,23.77
2023-05-12T12:07:36.653Z,23.53
2023-05-12T12:10:19.365Z,23.51
2023-05-12T12:12:46.555Z,23.39
2023-05-12T12:15:13.543Z,23.74
2023-05-12T12:17:40.692Z,23.67
2023-05-12T12:20:09.422Z,23.49
2023-05-12T12:22:36.439Z,23.53
2023-05-12T12:25:03.925Z,23.74
2023-05-12T12:27:31.162Z,23.72
2023-05-12T12:29:57.966Z,23.67
2023-05-12T12:32:25.214Z,23.62
2023-05-12T12:34:53.465Z,23.59
2023-05-12T12:37:20.420Z,23.38
2023-05-12T12:39:48.062Z,22.91
2023-05-12T12:42:15.727Z,22.86
2023-05-12T12:44:43.130Z,22.43
2023-05-12T12:47:10.234Z,22.36
2023-05-12T12:49:37.742Z,22.50
2023-05-12T12:52:05.182Z,22.65
2023-05-12T12:54:32.102Z,22.53
2023-05-12T12:56:58.985Z,22.33
2023-05-12T12:59:27.156Z,22.21
2023-05-12T13:01:54.064Z,22.53
2023-05-12T13:04:23.210Z,22.68
2023-05-12T13:06:50.312Z,23.04
2023-05-12T13:09:19.729Z,23.42
2023-05-12T13:11:47.733Z,23.71
2023-05-12T13:14:14.801Z,23.91
2023-05-12T13:16:42.301Z,23.99
2023-05-12T13:19:09.341Z,24.07
2023-05-12T13:21:36.372Z,24.13
2023-05-12T13:24:03.434Z,24.11
2023-05-12T13:26:30.366Z,24.22
2023-05-12T13:28:57.412Z,24.24
2023-05-12T13:31:24.294Z,24.29
2023-05-12T13:33:51.428Z,24.14
2023-05-12T13:36:18.396Z,24.37
2023-05-12T13:38:45.870Z,24.52
2023-05-12T13:41:12.677Z,24.61
2023-05-12T13:43:39.546Z,24.49
2023-05-12T13:46:06.519Z,24.47
2023-05-12T13:48:33.443Z,24.63
2023-05-12T13:51:00.302Z,24.67
2023-05-12T13:53:28.574Z,24.62
2023-05-12T13:55:55.656Z,24.87
2023-05-12T13:58:22.496Z,24.82
2023-05-12T14:00:49.633Z,24.72
2023-05-12T14:03:16.744Z,24.80
2023-05-12T14:05:43.652Z,24.81
2023-05-12T14:08:10.748Z,24.86
2023-05-12T14:10:37.760Z,24.94
2023-05-12T14:13:05.759Z,25.02
2023-05-12T14:15:47.228Z,25.04
2023-05-12T14:18:15.486Z,24.85
2023-05-12T14:20:42.370Z,24.88
2023-05-12T14:23:09.298Z,24.81
2023-05-12T14:25:36.239Z,24.70
2023-05-12T14:28:03.832Z,24.92
2023-05-12T14:30:31.140Z,25.02
2023-05-12T14:32:58.235Z,25.14
2023-05-12T14:35:27.811Z,25.21
2023-05-12T14:37:55.874Z,25.36
2023-05-12T14:40:23.676Z,25.52
2023-05-12T14:42:51.007Z,25.58
2023-05-12T14:45:18.327Z,25.58
2023-05-12T14:47:45.606Z,25.54
2023-05-12T14:50:12.929Z,25.41
2023-05-12T14:52:39.971Z,25.43
2023-05-12T14:55:11.763Z,25.62
2023-05-12T14:57:42.061Z,25.58
2023-05-12T15:00:14.046Z,25.58
2023-05-12T15:02:42.232Z,25.50
2023-05-12T15:05:10.179Z,25.57
2023-05-12T15:07:37.311Z,25.69
2023-05-12T15:10:04.844Z,25.58
2023-05-12T15:12:32.530Z,25.59
2023-05-12T15:15:04.329Z,25.55
2023-05-12T15:17:31.928Z,25.44
2023-05-12T15:19:59.195Z,25.65
2023-05-12T15:22:26.736Z,25.61
2023-05-12T15:24:53.599Z,25.67
2023-05-12T15:27:20.481Z,25.78
2023-05-12T15:29:47.292Z,25.78
2023-05-12T15:32:14.220Z,25.86
2023-05-12T15:34:41.121Z,25.62
2023-05-12T15:37:08.049Z,25.75
2023-05-12T15:39:34.876Z,25.73
2023-05-12T15:42:02.122Z,25.45
2023-05-12T15:44:28.946Z,25.23
2023-05-12T15:46:55.879Z,25.26
2023-05-12T15:49:22.974Z,25.42
2023-05-12T15:51:49.872Z,25.49
2023-05-12T15:54:16.733Z,25.58
2023-05-12T15:56:43.741Z,25.61
2023-05-12T15:59:12.221Z,25.78
2023-05-12T16:01:39.379Z,25.53
2023-05-12T16:04:07.177Z,25.47
2023-05-12T16:06:34.301Z,25.46
2023-05-12T16:09:01.565Z,25.50
2023-05-12T16:11:28.503Z,25.49
2023-05-12T16:13:57.162Z,25.57
2023-05-12T16:16:24.172Z,25.64
2023-05-12T16:18:51.226Z,25.61
2023-05-12T16:21:18.136Z,25.55
2023-05-12T16:23:45.105Z,25.73
2023-05-12T16:26:12.182Z,25.89
2023-05-12T16:28:39.038Z,25.99
2023-05-12T16:31:06.066Z,26.11
2023-05-12T16:33:33.012Z,26.15
2023-05-12T16:35:59.904Z,26.21
2023-05-12T16:38:26.890Z,26.22
2023-05-12T16:40:53.869Z,26.31
2023-05-12T16:43:20.817Z,26.38
2023-05-12T16:45:48.316Z,26.43
2023-05-12T16:48:15.536Z,26.45
2023-05-12T16:50:42.415Z,26.52
2023-05-12T16:53:09.455Z,26.65
2023-05-12T16:55:36.389Z,26.76
2023-05-12T16:58:03.345Z,26.78
2023-05-12T17:00:30.295Z,26.85
2023-05-12T17:02:57.266Z,26.94
2023-05-12T17:05:24.719Z,26.97
2023-05-12T17:07:51.669Z,27.10
2023-05-12T17:10:18.470Z,27.05
2023-05-12T17:12:45.484Z,27.13
2023-05-12T17:15:12.416Z,27.23
2023-05-12T17:17:39.537Z,27.21
2023-05-12T17:20:07.785Z,27.38
2023-05-12T17:22:37.336Z,27.33
2023-05-12T17:25:04.838Z,27.38
2023-05-12T17:27:31.771Z,27.48
2023-05-12T17:29:59.975Z,27.49
2023-05-12T17:32:27.335Z,27.50
2023-05-12T17:34:54.376Z,27.60
2023-05-12T17:37:21.235Z,27.64
2023-05-12T17:39:50.626Z,27.72
2023-05-12T17:42:17.883Z,27.81
2023-05-12T17:44:44.789Z,27.92
2023-05-12T17:47:14.585Z,28.07
2023-05-12T17:49:42.048Z,28.26
2023-05-12T17:52:08.964Z,28.37
2023-05-12T17:54:35.818Z,28.49
2023-05-12T17:57:03.374Z,28.66
2023-05-12T17:59:30.335Z,28.76
2023-05-12T18:01:57.218Z,28.86
2023-05-12T18:04:24.136Z,29.02
2023-05-12T18:06:51.099Z,29.05
2023-05-12T18:09:17.988Z,29.12
2023-05-12T18:11:45.030Z,29.27
2023-05-12T18:14:11.839Z,29.47
2023-05-12T18:16:39.027Z,29.58
2023-05-12T18:19:05.923Z,29.74
2023-05-12T18:21:32.999Z,29.81
2023-05-12T18:23:59.950Z,29.90
2023-05-12T18:26:27.823Z,29.99
2023-05-12T18:28:54.994Z,30.02
2023-05-12T18:31:22.174Z,30.11
2023-05-12T18:33:49.693Z,30.18
2023-05-12T18:36:16.752Z,30.16
2023-05-12T18:38:43.908Z,30.08
2023-05-12T18:41:11.065Z,30.12
2023-05-12T18:43:38.224Z,30.18
2023-05-12T18:46:06.123Z,30.07
2023-05-12T18:48:33.181Z,30.16
2023-05-12T18:51:00.153Z,30.10
2023-05-12T18:53:27.161Z,30.18
2023-05-12T18:55:54.003Z,30.02
2023-05-12T18:58:20.952Z,30.08
2023-05-12T19:00:47.898Z,30.46
2023-05-12T19:03:14.845Z,30.22
2023-05-12T19:05:44.670Z,30.16
2023-05-12T19:08:12.721Z,30.09
2023-05-12T19:10:40.231Z,29.87
2023-05-12T19:13:08.271Z,30.06
2023-05-12T19:15:35.852Z,30.59
2023-05-12T19:18:02.720Z,31.28
2023-05-12T19:20:30.791Z,31.85
2023-05-12T19:22:59.884Z,31.76
2023-05-12T19:25:26.831Z,31.70
2023-05-12T19:27:53.680Z,32.76
2023-05-12T19:30:20.523Z,33.78
2023-05-12T19:32:47.940Z,34.74
2023-05-12T19:35:15.037Z,33.88
2023-05-12T19:37:41.990Z,33.27
2023-05-12T19:40:09.568Z,34.67
2023-05-12T19:42:38.020Z,35.79
2023-05-12T19:45:05.935Z,36.31
2023-05-12T19:47:33.629Z,37.26
2023-05-12T19:50:01.017Z,36.80
2023-05-12T19:52:30.754Z,35.97
2023-05-12T19:54:57.916Z,35.89
2023-05-12T19:57:24.886Z,35.99
2023-05-12T19:59:52.029Z,35.51
2023-05-12T20:02:19.813Z,35.53
2023-05-12T20:04:46.875Z,36.22
2023-05-12T20:07:13.723Z,36.99
2023-05-12T20:09:40.612Z,37.44
2023-05-12T20:12:08.216Z,37.59
2023-05-12T20:14:35.787Z,37.68
2023-05-12T20:17:07.511Z,37.51
2023-05-12T20:19:34.710Z,37.14
2023-05-12T20:22:01.954Z,36.59
2023-05-12T20:24:28.905Z,36.57
2023-05-12T20:26:55.861Z,36.43
2023-05-12T20:29:23.012Z,36.26
2023-05-12T20:31:51.085Z,36.35
2023-05-12T20:34:18.753Z,36.32
2023-05-12T20:36:45.824Z,36.31
2023-05-12T20:39:13.796Z,36.06
2023-05-12T20:41:41.744Z,36.23
2023-05-12T20:44:09.126Z,36.35
2023-05-12T20:46:38.279Z,36.57
2023-05-12T20:49:06.019Z,36.71
2023-05-12T20:51:32.938Z,36.87
2023-05-12T20:53:59.900Z,37.11
2023-05-12T20:56:27.248Z,36.92
2023-05-12T20:58:54.158Z,36.77
2023-05-12T21:01:21.013Z,36.89
2023-05-12T21:03:47.949Z,36.92
2023-05-12T21:06:14.881Z,36.60
2023-05-12T21:08:41.804Z,36.50
2023-05-12T21:11:16.322Z,36.77
2023-05-12T21:13:45.194Z,36.87
2023-05-12T21:16:12.112Z,36.85
2023-05-12T21:18:39.106Z,36.82
2023-05-12T21:21:06.797Z,36.89
2023-05-12T21:23:34.766Z,37.11
2023-05-12T21:26:01.717Z,37.17
2023-05-12T21:28:28.669Z,37.35
2023-05-12T21:30:55.514Z,37.49
2023-05-12T21:33:22.375Z,37.55
2023-05-12T21:35:50.142Z,37.60
2023-05-12T21:38:17.300Z,37.66
2023-05-12T21:40:44.480Z,37.79
2023-05-12T21:43:11.607Z,37.86
2023-05-12T21:45:38.555Z,37.71
2023-05-12T21:48:06.083Z,37.80
2023-05-12T21:50:33.069Z,37.84
2023-05-12T21:53:00.023Z,38.00
2023-05-12T21:55:26.874Z,38.05
2023-05-12T21:57:53.681Z,38.05
2023-05-12T22:00:21.863Z,38.14
2023-05-12T22:02:49.176Z,38.29
2023-05-12T22:05:16.036Z,38.36
2023-05-12T22:07:42.955Z,38.46
2023-05-12T22:10:10.020Z,38.50
2023-05-12T22:12:37.821Z,38.46
2023-05-12T22:15:05.356Z,38.43
2023-05-12T22:17:32.275Z,38.42
2023-05-12T22:19:59.684Z,38.33
2023-05-12T22:22:26.504Z,38.29
2023-05-12T22:24:53.467Z,38.41
2023-05-12T22:27:22.526Z,38.56
2023-05-12T22:29:49.950Z,38.42
2023-05-12T22:32:16.986Z,38.11
2023-05-12T22:34:43.927Z,37.91
2023-05-12T22:37:10.794Z,37.64
2023-05-12T22:39:37.595Z,37.46
2023-05-12T22:42:04.692Z,37.30
2023-05-12T22:44:31.564Z,37.13
2023-05-12T22:46:58.608Z,37.05
2023-05-12T22:49:25.642Z,37.04
2023-05-12T22:51:52.902Z,36.91
2023-05-12T22:54:19.852Z,36.83
2023-05-12T22:56:46.795Z,36.78
2023-05-12T22:59:13.745Z,36.75
2023-05-12T23:01:40.708Z,36.80
2023-05-12T23:04:07.739Z,36.82
2023-05-12T23:06:35.013Z,36.82
2023-05-12T23:09:01.967Z,36.94
2023-05-12T23:11:28.909Z,36.99
2023-05-12T23:13:55.963Z,37.02
2023-05-12T23:16:23.882Z,37.18
2023-05-12T23:18:50.911Z,37.18
2023-05-12T23:21:18.055Z,37.42
2023-05-12T23:23:45.094Z,37.50
2023-05-12T23:26:12.161Z,37.70
2023-05-12T23:28:39.102Z,37.72
2023-05-12T23:31:05.988Z,37.82
2023-05-12T23:33:33.105Z,37.90
2023-05-12T23:36:00.178Z,38.10
2023-05-12T23:38:27.234Z,38.26
2023-05-12T23:40:54.381Z,38.15
2023-05-12T23:43:21.289Z,38.03
2023-05-12T23:45:48.185Z,38.11
2023-05-12T23:48:15.232Z,38.46
2023-05-12T23:50:42.054Z,38.83
2023-05-12T23:53:08.929Z,39.34
2023-05-12T23:55:37.205Z,39.46
2023-05-12T23:58:04.116Z,39.57
